sensor_id;sensor_type;location;lat;lon;timestamp;pressure;altitude;pressure_sealevel;temperature;humidity
3176;BME280;1599;51.564;6.990;2023-09-18T00:00:04;100134.75;;;20.35;100.00
3176;BME280;1599;51.564;6.990;2023-09-18T00:02:34;100127.50;;;20.33;100.00
3176;BME280;1599;51.564;6.990;2023-09-18T00:05:00;100118.38;;;20.42;100.00
3176;BME280;1599;51.564;6.990;2023-09-18T00:07:25;100115.44;;;20.47;100.00
3176;BME280;1599;51.564;6.990;2023-09-18T00:09:51;100108.09;;;20.51;100.00
3176;BME280;1599;51.564;6.990;2023-09-18T00:12:18;100109.22;;;20.50;100.00
3176;BME280;1599;51.564;6.990;2023-09-18T00:14:46;100110.69;;;20.47;100.00
3176;BME280;1599;51.564;6.990;2023-09-18T00:17:12;100113.81;;;20.46;100.00
3176;BME280;1599;51.564;6.990;2023-09-18T00:19:38;100104.28;;;20.47;100.00
3176;BME280;1599;51.564;6.990;2023-09-18T00:22:04;100105.44;;;20.46;100.00
3176;BME280;1599;51.564;6.990;2023-09-18T00:24:30;100097.84;;;20.38;100.00
3176;BME280;1599;51.564;6.990;2023-09-18T00:26:56;100099.59;;;20.33;100.00
3176;BME280;1599;51.564;6.990;2023-09-18T00:29:21;100101.47;;;20.38;100.00
3176;BME280;1599;51.564;6.990;2023-09-18T00:31:47;100097.84;;;20.38;100.00
3176;BME280;1599;51.564;6.990;2023-09-18T00:34:13;100085.56;;;20.39;100.00
3176;BME280;1599;51.564;6.990;2023-09-18T00:36:38;100079.97;;;20.39;100.00
3176;BME280;1599;51.564;6.990;2023-09-18T00:39:04;100068.13;;;20.42;100.00
3176;BME280;1599;51.564;6.990;2023-09-18T00:41:30;100060.44;;;20.47;100.00
3176;BME280;1599;51.564;6.990;2023-09-18T00:43:56;100061.97;;;20.53;100.00
3176;BME280;1599;51.564;6.990;2023-09-18T00:46:22;100051.28;;;20.55;100.00
3176;BME280;1599;51.564;6.990;2023-09-18T00:48:49;100043.06;;;20.50;100.00
3176;BME280;1599;51.564;6.990;2023-09-18T00:51:15;100042.09;;;20.55;100.00
3176;BME280;1599;51.564;6.990;2023-09-18T00:53:46;100042.44;;;20.53;100.00
3176;BME280;1599;51.564;6.990;2023-09-18T00:56:16;100031.25;;;20.53;100.00
3176;BME280;1599;51.564;6.990;2023-09-18T00:58:44;100032.09;;;20.54;100.00
3176;BME280;1599;51.564;6.990;2023-09-18T01:01:11;100028.13;;;20.55;100.00
3176;BME280;1599;51.564;6.990;2023-09-18T01:03:37;100031.72;;;20.47;100.00
3176;BME280;1599;51.564;6.990;2023-09-18T01:06:03;100030.72;;;20.43;100.00
3176;BME280;1599;51.564;6.990;2023-09-18T01:08:29;100024.31;;;20.42;100.00
3176;BME280;1599;51.564;6.990;2023-09-18T01:14:19;100019.22;;;20.36;100.00
3176;BME280;1599;51.564;6.990;2023-09-18T01:17:06;100015.91;;;20.33;100.00
3176;BME280;1599;51.564;6.990;2023-09-18T01:19:44;99998.66;;;20.31;100.00
3176;BME280;1599;51.564;6.990;2023-09-18T01:22:16;99994.25;;;20.30;100.00
3176;BME280;1599;51.564;6.990;2023-09-18T01:24:43;99999.31;;;20.28;100.00
3176;BME280;1599;51.564;6.990;2023-09-18T01:27:13;100009.97;;;20.26;100.00
3176;BME280;1599;51.564;6.990;2023-09-18T01:29:40;100002.38;;;20.18;100.00
3176;BME280;1599;51.564;6.990;2023-09-18T01:32:06;99999.41;;;20.15;100.00
3176;BME280;1599;51.564;6.990;2023-09-18T01:34:40;100006.97;;;20.14;100.00
3176;BME280;1599;51.564;6.990;2023-09-18T01:37:09;100000.34;;;20.10;100.00
3176;BME280;1599;51.564;6.990;2023-09-18T01:39:36;100000.34;;;20.10;100.00
3176;BME280;1599;51.564;6.990;2023-09-18T01:42:03;99994.13;;;20.13;100.00
3176;BME280;1599;51.564;6.990;2023-09-18T01:44:32;99990.22;;;20.14;100.00
3176;BME280;1599;51.564;6.990;2023-09-18T01:47:07;99990.72;;;20.16;100.00
3176;BME280;1599;51.564;6.990;2023-09-18T01:49:36;99989.59;;;20.17;100.00
3176;BME280;1599;51.564;6.990;2023-09-18T01:52:04;99985.63;;;20.18;100.00
3176;BME280;1599;51.564;6.990;2023-09-18T01:54:32;99977.78;;;20.20;100.00
3176;BME280;1599;51.564;6.990;2023-09-18T01:56:58;99975.00;;;20.20;100.00
3176;BME280;1599;51.564;6.990;2023-09-18T01:59:24;99966.75;;;20.15;100.00
3176;BME280;1599;51.564;6.990;2023-09-18T02:01:51;99963.31;;;20.18;100.00
3176;BME280;1599;51.564;6.990;2023-09-18T02:04:18;99957.72;;;20.18;100.00
3176;BME280;1599;51.564;6.990;2023-09-18T02:06:44;99947.75;;;20.17;100.00
3176;BME280;1599;51.564;6.990;2023-09-18T02:09:10;99950.34;;;20.14;100.00
3176;BME280;1599;51.564;6.990;2023-09-18T02:11:42;99949.50;;;20.13;100.00
3176;BME280;1599;51.564;6.990;2023-09-18T02:14:09;99950.16;;;20.10;100.00
3176;BME280;1599;51.564;6.990;2023-09-18T02:16:36;99941.28;;;20.08;100.00
3176;BME280;1599;51.564;6.990;2023-09-18T02:19:03;99948.03;;;20.07;100.00
3176;BME280;1599;51.564;6.990;2023-09-18T02:21:30;99938.66;;;20.03;100.00
3176;BME280;1599;51.564;6.990;2023-09-18T02:23:56;99937.00;;;20.02;100.00
3176;BME280;1599;51.564;6.990;2023-09-18T02:26:24;99933.72;;;20.00;100.00
3176;BME280;1599;51.564;6.990;2023-09-18T02:28:52;99932.09;;;19.99;100.00
3176;BME280;1599;51.564;6.990;2023-09-18T02:31:21;99927.16;;;19.96;100.00
3176;BME280;1599;51.564;6.990;2023-09-18T02:33:48;99929.44;;;19.94;100.00
3176;BME280;1599;51.564;6.990;2023-09-18T02:36:14;99918.28;;;19.94;100.00
3176;BME280;1599;51.564;6.990;2023-09-18T02:38:41;99914.00;;;19.88;100.00
3176;BME280;1599;51.564;6.990;2023-09-18T02:41:06;99907.13;;;19.94;100.00
3176;BME280;1599;51.564;6.990;2023-09-18T02:43:32;99903.19;;;19.95;100.00
3176;BME280;1599;51.564;6.990;2023-09-18T02:45:58;99898.09;;;19.97;100.00
3176;BME280;1599;51.564;6.990;2023-09-18T02:48:24;99883.53;;;20.00;100.00
3176;BME280;1599;51.564;6.990;2023-09-18T02:50:49;99875.50;;;19.99;100.00
3176;BME280;1599;51.564;6.990;2023-09-18T02:53:22;99874.16;;;19.96;100.00
3176;BME280;1599;51.564;6.990;2023-09-18T02:55:51;99861.69;;;19.94;100.00
3176;BME280;1599;51.564;6.990;2023-09-18T02:58:17;99860.88;;;19.93;100.00
3176;BME280;1599;51.564;6.990;2023-09-18T03:00:46;99860.22;;;19.96;100.00
3176;BME280;1599;51.564;6.990;2023-09-18T03:03:13;99850.69;;;19.97;100.00
3176;BME280;1599;51.564;6.990;2023-09-18T03:05:40;99843.31;;;19.93;100.00
3176;BME280;1599;51.564;6.990;2023-09-18T03:08:07;99850.84;;;19.92;100.00
3176;BME280;1599;51.564;6.990;2023-09-18T03:10:37;99857.94;;;19.98;100.00
3176;BME280;1599;51.564;6.990;2023-09-18T03:13:06;99856.28;;;19.97;100.00
3176;BME280;1599;51.564;6.990;2023-09-18T03:15:32;99853.81;;;19.96;100.00
3176;BME280;1599;51.564;6.990;2023-09-18T03:18:00;99851.56;;;20.06;100.00
3176;BME280;1599;51.564;6.990;2023-09-18T03:20:27;99841.53;;;20.05;100.00
3176;BME280;1599;51.564;6.990;2023-09-18T03:22:59;99836.97;;;20.09;100.00
3176;BME280;1599;51.564;6.990;2023-09-18T03:25:25;99832.03;;;20.06;100.00
3176;BME280;1599;51.564;6.990;2023-09-18T03:27:52;99824.81;;;20.05;100.00
3176;BME280;1599;51.564;6.990;2023-09-18T03:30:19;99814.00;;;20.12;100.00
3176;BME280;1599;51.564;6.990;2023-09-18T03:32:45;99807.91;;;20.10;100.00
3176;BME280;1599;51.564;6.990;2023-09-18T03:35:12;99807.09;;;20.18;100.00
3176;BME280;1599;51.564;6.990;2023-09-18T03:37:51;99794.16;;;20.22;100.00
3176;BME280;1599;51.564;6.990;2023-09-18T03:40:18;99800.09;;;20.29;100.00
3176;BME280;1599;51.564;6.990;2023-09-18T03:42:45;99797.16;;;20.35;100.00
3176;BME280;1599;51.564;6.990;2023-09-18T03:45:12;99783.69;;;20.28;100.00
3176;BME280;1599;51.564;6.990;2023-09-18T03:47:39;99777.94;;;20.24;100.00
3176;BME280;1599;51.564;6.990;2023-09-18T03:50:12;99774.63;;;20.22;100.00
3176;BME280;1599;51.564;6.990;2023-09-18T03:52:39;99777.72;;;20.21;100.00
3176;BME280;1599;51.564;6.990;2023-09-18T03:55:06;99775.09;;;20.16;100.00
3176;BME280;1599;51.564;6.990;2023-09-18T03:57:32;99774.97;;;20.12;100.00
3176;BME280;1599;51.564;6.990;2023-09-18T03:59:58;99761.50;;;20.14;100.00
3176;BME280;1599;51.564;6.990;2023-09-18T04:02:25;99767.56;;;20.08;100.00
3176;BME280;1599;51.564;6.990;2023-09-18T04:04:53;99757.56;;;20.15;100.00
3176;BME280;1599;51.564;6.990;2023-09-18T04:07:19;99757.56;;;20.15;100.00
3176;BME280;1599;51.564;6.990;2023-09-18T04:09:46;99753.97;;;20.23;100.00
3176;BME280;1599;51.564;6.990;2023-09-18T04:12:12;99746.75;;;20.22;100.00
3176;BME280;1599;51.564;6.990;2023-09-18T04:14:38;99744.25;;;20.21;100.00
3176;BME280;1599;51.564;6.990;2023-09-18T04:17:04;99737.69;;;20.08;100.00
3176;BME280;1599;51.564;6.990;2023-09-18T04:19:30;99736.88;;;20.16;100.00
3176;BME280;1599;51.564;6.990;2023-09-18T04:21:56;99725.44;;;20.26;100.00
3176;BME280;1599;51.564;6.990;2023-09-18T04:24:22;99723.94;;;20.20;100.00
3176;BME280;1599;51.564;6.990;2023-09-18T04:26:49;99712.13;;;20.32;100.00
3176;BME280;1599;51.564;6.990;2023-09-18T04:29:19;99722.81;;;20.39;100.00
3176;BME280;1599;51.564;6.990;2023-09-18T04:31:45;99718.72;;;20.36;100.00
3176;BME280;1599;51.564;6.990;2023-09-18T04:34:11;99730.00;;;20.31;100.00
3176;BME280;1599;51.564;6.990;2023-09-18T04:36:37;99748.22;;;20.37;100.00
3176;BME280;1599;51.564;6.990;2023-09-18T04:39:05;99755.28;;;20.35;100.00
3176;BME280;1599;51.564;6.990;2023-09-18T04:41:32;99759.56;;;20.41;100.00
3176;BME280;1599;51.564;6.990;2023-09-18T04:43:58;99758.22;;;20.47;100.00
3176;BME280;1599;51.564;6.990;2023-09-18T04:46:24;99769.25;;;20.52;100.00
3176;BME280;1599;51.564;6.990;2023-09-18T04:48:51;99759.72;;;20.53;100.00
3176;BME280;1599;51.564;6.990;2023-09-18T04:51:16;99758.88;;;20.61;100.00
3176;BME280;1599;51.564;6.990;2023-09-18T04:53:42;99757.56;;;20.67;100.00
3176;BME280;1599;51.564;6.990;2023-09-18T04:56:09;99751.31;;;20.70;100.00
3176;BME280;1599;51.564;6.990;2023-09-18T04:58:38;99749.97;;;20.76;100.00
3176;BME280;1599;51.564;6.990;2023-09-18T05:01:04;99760.84;;;20.77;100.00
3176;BME280;1599;51.564;6.990;2023-09-18T05:03:34;99775.09;;;20.84;100.00
3176;BME280;1599;51.564;6.990;2023-09-18T05:06:00;99785.09;;;20.94;100.00
3176;BME280;1599;51.564;6.990;2023-09-18T05:08:26;99772.59;;;21.00;100.00
3176;BME280;1599;51.564;6.990;2023-09-18T05:10:52;99783.09;;;21.03;100.00
3176;BME280;1599;51.564;6.990;2023-09-18T05:13:18;99798.22;;;21.02;100.00
3176;BME280;1599;51.564;6.990;2023-09-18T05:15:44;99794.78;;;21.14;100.00
3176;BME280;1599;51.564;6.990;2023-09-18T05:18:10;99786.72;;;21.12;100.00
3176;BME280;1599;51.564;6.990;2023-09-18T05:20:35;99787.38;;;21.09;100.00
3176;BME280;1599;51.564;6.990;2023-09-18T05:23:01;99792.16;;;21.09;100.00
3176;BME280;1599;51.564;6.990;2023-09-18T05:25:29;99785.38;;;21.18;100.00
3176;BME280;1599;51.564;6.990;2023-09-18T05:27:58;99777.03;;;21.10;100.00
3176;BME280;1599;51.564;6.990;2023-09-18T05:30:34;99786.06;;;21.15;100.00
3176;BME280;1599;51.564;6.990;2023-09-18T05:33:02;99776.38;;;21.13;100.00
3176;BME280;1599;51.564;6.990;2023-09-18T05:35:44;99760.13;;;21.06;100.00
3176;BME280;1599;51.564;6.990;2023-09-18T05:38:12;99772.44;;;21.14;100.00
3176;BME280;1599;51.564;6.990;2023-09-18T05:40:39;99776.53;;;21.16;100.00
3176;BME280;1599;51.564;6.990;2023-09-18T05:43:06;99778.03;;;21.14;100.00
3176;BME280;1599;51.564;6.990;2023-09-18T05:45:33;99780.34;;;21.12;100.00
3176;BME280;1599;51.564;6.990;2023-09-18T05:47:59;99780.94;;;21.17;100.00
3176;BME280;1599;51.564;6.990;2023-09-18T05:50:33;99787.72;;;21.16;100.00
3176;BME280;1599;51.564;6.990;2023-09-18T05:53:00;99787.53;;;21.13;100.00
3176;BME280;1599;51.564;6.990;2023-09-18T05:55:35;99776.81;;;21.23;100.00
3176;BME280;1599;51.564;6.990;2023-09-18T05:58:02;99777.00;;;21.18;100.00
3176;BME280;1599;51.564;6.990;2023-09-18T06:00:29;99787.34;;;21.26;100.00
3176;BME280;1599;51.564;6.990;2023-09-18T06:02:56;99778.47;;;21.24;100.00
3176;BME280;1599;51.564;6.990;2023-09-18T06:05:22;99793.09;;;21.30;100.00
3176;BME280;1599;51.564;6.990;2023-09-18T06:07:48;99791.09;;;21.30;100.00
3176;BME280;1599;51.564;6.990;2023-09-18T06:10:15;99795.53;;;21.31;100.00
3176;BME280;1599;51.564;6.990;2023-09-18T06:12:41;99805.06;;;21.30;100.00
3176;BME280;1599;51.564;6.990;2023-09-18T06:15:08;99803.72;;;21.36;100.00
3176;BME280;1599;51.564;6.990;2023-09-18T06:17:42;99800.16;;;21.27;100.00
3176;BME280;1599;51.564;6.990;2023-09-18T06:20:09;99799.16;;;21.32;100.00
3176;BME280;1599;51.564;6.990;2023-09-18T06:22:39;99803.53;;;21.41;100.00
3176;BME280;1599;51.564;6.990;2023-09-18T06:25:07;99815.06;;;21.40;100.00
3176;BME280;1599;51.564;6.990;2023-09-18T06:27:37;99824.75;;;21.42;100.00
3176;BME280;1599;51.564;6.990;2023-09-18T06:30:04;99827.88;;;21.41;100.00
3176;BME280;1599;51.564;6.990;2023-09-18T06:32:31;99808.66;;;21.39;100.00
3176;BME280;1599;51.564;6.990;2023-09-18T06:34:56;99812.41;;;21.43;100.00
3176;BME280;1599;51.564;6.990;2023-09-18T06:37:24;99822.16;;;21.37;100.00
3176;BME280;1599;51.564;6.990;2023-09-18T06:39:50;99823.72;;;21.56;100.00
3176;BME280;1599;51.564;6.990;2023-09-18T06:42:16;99825.72;;;21.46;100.00
3176;BME280;1599;51.564;6.990;2023-09-18T06:44:42;99819.28;;;21.54;100.00
3176;BME280;1599;51.564;6.990;2023-09-18T06:47:08;99806.59;;;21.57;100.00
3176;BME280;1599;51.564;6.990;2023-09-18T06:49:33;99811.88;;;21.59;100.00
3176;BME280;1599;51.564;6.990;2023-09-18T06:52:00;99815.53;;;21.50;100.00
3176;BME280;1599;51.564;6.990;2023-09-18T06:54:25;99822.88;;;21.64;100.00
3176;BME280;1599;51.564;6.990;2023-09-18T06:56:51;99824.09;;;21.45;100.00
3176;BME280;1599;51.564;6.990;2023-09-18T06:59:17;99836.34;;;21.62;100.00
3176;BME280;1599;51.564;6.990;2023-09-18T07:01:43;99833.88;;;21.69;100.00
3176;BME280;1599;51.564;6.990;2023-09-18T07:04:09;99845.03;;;21.69;100.00
3176;BME280;1599;51.564;6.990;2023-09-18T07:06:35;99839.06;;;21.79;100.00
3176;BME280;1599;51.564;6.990;2023-09-18T07:09:01;99850.06;;;21.92;100.00
3176;BME280;1599;51.564;6.990;2023-09-18T07:11:28;99843.66;;;21.92;100.00
3176;BME280;1599;51.564;6.990;2023-09-18T07:13:54;99839.00;;;21.96;100.00
3176;BME280;1599;51.564;6.990;2023-09-18T07:16:20;99849.53;;;21.99;100.00
3176;BME280;1599;51.564;6.990;2023-09-18T07:18:45;99854.28;;;21.98;100.00
3176;BME280;1599;51.564;6.990;2023-09-18T07:21:11;99861.00;;;22.06;100.00
3176;BME280;1599;51.564;6.990;2023-09-18T07:23:40;99859.50;;;22.08;100.00
3176;BME280;1599;51.564;6.990;2023-09-18T07:26:05;99854.91;;;22.04;100.00
3176;BME280;1599;51.564;6.990;2023-09-18T07:28:32;99851.06;;;22.17;100.00
3176;BME280;1599;51.564;6.990;2023-09-18T07:31:05;99855.31;;;22.23;100.00
3176;BME280;1599;51.564;6.990;2023-09-18T07:33:31;99859.41;;;22.26;100.00
3176;BME280;1599;51.564;6.990;2023-09-18T07:35:57;99857.03;;;22.36;100.00
3176;BME280;1599;51.564;6.990;2023-09-18T07:38:23;99862.63;;;22.36;100.00
3176;BME280;1599;51.564;6.990;2023-09-18T07:40:50;99861.25;;;22.42;100.00
3176;BME280;1599;51.564;6.990;2023-09-18T07:43:16;99865.97;;;22.50;100.00
3176;BME280;1599;51.564;6.990;2023-09-18T07:45:42;99884.16;;;22.44;100.00
3176;BME280;1599;51.564;6.990;2023-09-18T07:48:08;99873.91;;;22.48;100.00
3176;BME280;1599;51.564;6.990;2023-09-18T07:50:37;99879.28;;;22.53;100.00
3176;BME280;1599;51.564;6.990;2023-09-18T07:53:03;99869.38;;;22.56;100.00
3176;BME280;1599;51.564;6.990;2023-09-18T07:55:29;99878.63;;;22.56;100.00
3176;BME280;1599;51.564;6.990;2023-09-18T07:57:55;99880.84;;;22.42;100.00
3176;BME280;1599;51.564;6.990;2023-09-18T08:00:21;99882.75;;;22.50;100.00
3176;BME280;1599;51.564;6.990;2023-09-18T08:02:48;99875.78;;;22.36;100.00
3176;BME280;1599;51.564;6.990;2023-09-18T08:05:16;99880.31;;;22.49;100.00
3176;BME280;1599;51.564;6.990;2023-09-18T08:07:42;99893.22;;;22.41;100.00
3176;BME280;1599;51.564;6.990;2023-09-18T08:10:09;99885.75;;;22.45;100.00
3176;BME280;1599;51.564;6.990;2023-09-18T08:12:35;99900.13;;;22.44;100.00
3176;BME280;1599;51.564;6.990;2023-09-18T08:15:01;99902.66;;;22.57;100.00
3176;BME280;1599;51.564;6.990;2023-09-18T08:17:28;99887.69;;;22.53;100.00
3176;BME280;1599;51.564;6.990;2023-09-18T08:19:54;99876.03;;;22.51;100.00
3176;BME280;1599;51.564;6.990;2023-09-18T08:22:21;99879.56;;;22.60;100.00
3176;BME280;1599;51.564;6.990;2023-09-18T08:24:49;99889.91;;;22.68;100.00
3176;BME280;1599;51.564;6.990;2023-09-18T08:27:18;99898.81;;;22.70;100.00
3176;BME280;1599;51.564;6.990;2023-09-18T08:29:45;99911.38;;;22.64;100.00
3176;BME280;1599;51.564;6.990;2023-09-18T08:32:12;99918.41;;;22.70;100.00
3176;BME280;1599;51.564;6.990;2023-09-18T08:34:37;99905.81;;;22.77;100.00
3176;BME280;1599;51.564;6.990;2023-09-18T08:37:04;99906.41;;;22.61;100.00
3176;BME280;1599;51.564;6.990;2023-09-18T08:39:29;99916.41;;;22.71;100.00
3176;BME280;1599;51.564;6.990;2023-09-18T08:42:02;99906.41;;;22.61;100.00
3176;BME280;1599;51.564;6.990;2023-09-18T08:44:29;99904.25;;;22.67;100.00
3176;BME280;1599;51.564;6.990;2023-09-18T08:46:56;99916.81;;;22.82;100.00
3176;BME280;1599;51.564;6.990;2023-09-18T08:49:24;99907.13;;;22.79;100.00
3176;BME280;1599;51.564;6.990;2023-09-18T08:51:55;99904.22;;;22.76;100.00
3176;BME280;1599;51.564;6.990;2023-09-18T08:54:22;99903.69;;;22.73;100.00
3176;BME280;1599;51.564;6.990;2023-09-18T08:56:52;99913.81;;;22.87;100.00
3176;BME280;1599;51.564;6.990;2023-09-18T08:59:21;99906.03;;;22.92;100.00
3176;BME280;1599;51.564;6.990;2023-09-18T09:01:50;99916.16;;;22.85;100.00
3176;BME280;1599;51.564;6.990;2023-09-18T09:04:15;99906.72;;;22.89;100.00
3176;BME280;1599;51.564;6.990;2023-09-18T09:06:41;99917.78;;;22.86;100.00
3176;BME280;1599;51.564;6.990;2023-09-18T09:09:07;99922.44;;;22.82;100.00
3176;BME280;1599;51.564;6.990;2023-09-18T09:11:34;99932.41;;;22.91;100.00
3176;BME280;1599;51.564;6.990;2023-09-18T09:14:14;99931.59;;;22.91;100.00
3176;BME280;1599;51.564;6.990;2023-09-18T09:16:55;99920.81;;;23.01;100.00
3176;BME280;1599;51.564;6.990;2023-09-18T09:19:34;99912.03;;;23.03;100.00
3176;BME280;1599;51.564;6.990;2023-09-18T09:22:04;99913.22;;;23.02;100.00
3176;BME280;1599;51.564;6.990;2023-09-18T09:24:43;99920.53;;;23.15;100.00
3176;BME280;1599;51.564;6.990;2023-09-18T09:27:10;99907.22;;;23.24;100.00
3176;BME280;1599;51.564;6.990;2023-09-18T09:29:36;99902.19;;;23.38;100.00
3176;BME280;1599;51.564;6.990;2023-09-18T09:32:17;99913.22;;;23.34;100.00
3176;BME280;1599;51.564;6.990;2023-09-18T09:34:44;99914.03;;;23.35;100.00
3176;BME280;1599;51.564;6.990;2023-09-18T09:37:12;99910.94;;;23.16;100.00
3176;BME280;1599;51.564;6.990;2023-09-18T09:39:50;99915.56;;;23.32;100.00
3176;BME280;1599;51.564;6.990;2023-09-18T09:42:19;99913.06;;;23.31;100.00
3176;BME280;1599;51.564;6.990;2023-09-18T09:45:05;99920.34;;;23.32;100.00
3176;BME280;1599;51.564;6.990;2023-09-18T09:47:35;99919.41;;;23.07;100.00
3176;BME280;1599;51.564;6.990;2023-09-18T09:50:14;99928.72;;;23.20;100.00
3176;BME280;1599;51.564;6.990;2023-09-18T09:52:49;99944.84;;;23.23;100.00
3176;BME280;1599;51.564;6.990;2023-09-18T09:55:28;99946.47;;;23.24;100.00
3176;BME280;1599;51.564;6.990;2023-09-18T09:57:57;99928.09;;;23.14;100.00
3176;BME280;1599;51.564;6.990;2023-09-18T10:00:49;99930.06;;;23.14;100.00
3176;BME280;1599;51.564;6.990;2023-09-18T10:03:19;99917.50;;;23.20;100.00
3176;BME280;1599;51.564;6.990;2023-09-18T10:05:51;99929.50;;;23.20;100.00
3176;BME280;1599;51.564;6.990;2023-09-18T10:08:25;99935.72;;;23.26;100.00
3176;BME280;1599;51.564;6.990;2023-09-18T10:10:54;99936.75;;;23.42;100.00
3176;BME280;1599;51.564;6.990;2023-09-18T10:13:32;99944.88;;;23.35;100.00
3176;BME280;1599;51.564;6.990;2023-09-18T10:16:00;99939.09;;;23.40;100.00
3176;BME280;1599;51.564;6.990;2023-09-18T10:22:01;99933.78;;;23.59;100.00
3176;BME280;1599;51.564;6.990;2023-09-18T10:24:34;99930.94;;;23.47;100.00
3176;BME280;1599;51.564;6.990;2023-09-18T10:27:05;99933.50;;;23.40;100.00
3176;BME280;1599;51.564;6.990;2023-09-18T10:29:34;99930.75;;;23.11;100.00
3176;BME280;1599;51.564;6.990;2023-09-18T10:32:04;99925.34;;;23.26;100.00
3176;BME280;1599;51.564;6.990;2023-09-18T10:34:30;99929.78;;;23.48;100.00
3176;BME280;1599;51.564;6.990;2023-09-18T10:37:00;99930.94;;;23.47;100.00
3176;BME280;1599;51.564;6.990;2023-09-18T10:39:28;99922.06;;;23.57;100.00
3176;BME280;1599;51.564;6.990;2023-09-18T10:41:56;99920.69;;;23.63;100.00
3176;BME280;1599;51.564;6.990;2023-09-18T10:44:28;99920.25;;;23.73;100.00
3176;BME280;1599;51.564;6.990;2023-09-18T10:46:54;99916.28;;;23.74;100.00
3176;BME280;1599;51.564;6.990;2023-09-18T10:49:21;99916.28;;;23.74;100.00
3176;BME280;1599;51.564;6.990;2023-09-18T10:51:48;99925.41;;;23.83;100.00
3176;BME280;1599;51.564;6.990;2023-09-18T10:54:23;99924.38;;;23.88;100.00
3176;BME280;1599;51.564;6.990;2023-09-18T10:56:50;99926.47;;;23.91;100.00
3176;BME280;1599;51.564;6.990;2023-09-18T10:59:16;99922.00;;;23.78;100.00
3176;BME280;1599;51.564;6.990;2023-09-18T11:01:43;99923.50;;;23.75;100.00
3176;BME280;1599;51.564;6.990;2023-09-18T11:04:10;99931.94;;;23.75;100.00
3176;BME280;1599;51.564;6.990;2023-09-18T11:09:28;99932.28;;;23.74;100.00
3176;BME280;1599;51.564;6.990;2023-09-18T11:15:00;99922.59;;;23.71;100.00
3176;BME280;1599;51.564;6.990;2023-09-18T11:17:34;99918.03;;;23.79;100.00
3176;BME280;1599;51.564;6.990;2023-09-18T11:20:18;99916.66;;;23.97;100.00
3176;BME280;1599;51.564;6.990;2023-09-18T11:23:09;99921.91;;;23.98;100.00
3176;BME280;1599;51.564;6.990;2023-09-18T11:25:40;99908.09;;;23.93;100.00
3176;BME280;1599;51.564;6.990;2023-09-18T11:28:16;99917.03;;;23.95;100.00
3176;BME280;1599;51.564;6.990;2023-09-18T11:30:57;99914.81;;;24.01;100.00
3176;BME280;1599;51.564;6.990;2023-09-18T11:33:40;99915.44;;;24.19;100.00
3176;BME280;1599;51.564;6.990;2023-09-18T11:36:07;99907.81;;;24.31;100.00
3176;BME280;1599;51.564;6.990;2023-09-18T11:38:35;99903.13;;;24.35;100.00
3176;BME280;1599;51.564;6.990;2023-09-18T11:41:24;99901.84;;;24.45;100.00
3176;BME280;1599;51.564;6.990;2023-09-18T11:43:52;99905.81;;;24.44;100.00
3176;BME280;1599;51.564;6.990;2023-09-18T11:46:19;99900.44;;;24.39;100.00
3176;BME280;1599;51.564;6.990;2023-09-18T11:48:48;99891.88;;;24.47;100.00
3176;BME280;1599;51.564;6.990;2023-09-18T11:51:23;99892.63;;;24.32;100.00
3176;BME280;1599;51.564;6.990;2023-09-18T11:53:55;99901.34;;;24.55;100.00
3176;BME280;1599;51.564;6.990;2023-09-18T11:56:21;99895.25;;;24.65;100.00
3176;BME280;1599;51.564;6.990;2023-09-18T11:58:49;99893.81;;;24.71;100.00
3176;BME280;1599;51.564;6.990;2023-09-18T12:01:17;99894.09;;;24.54;100.00
3176;BME280;1599;51.564;6.990;2023-09-18T12:03:44;99889.84;;;24.72;100.00
3176;BME280;1599;51.564;6.990;2023-09-18T12:06:11;99886.78;;;24.89;100.00
3176;BME280;1599;51.564;6.990;2023-09-18T12:08:40;99877.38;;;24.97;100.00
3176;BME280;1599;51.564;6.990;2023-09-18T12:11:07;99879.56;;;25.04;100.00
3176;BME280;1599;51.564;6.990;2023-09-18T12:13:33;99876.91;;;24.95;100.00
3176;BME280;1599;51.564;6.990;2023-09-18T12:16:04;99873.19;;;24.91;100.00
3176;BME280;1599;51.564;6.990;2023-09-18T12:18:33;99872.31;;;25.03;100.00
3176;BME280;1599;51.564;6.990;2023-09-18T12:21:02;99875.28;;;24.94;100.00
3176;BME280;1599;51.564;6.990;2023-09-18T12:23:36;99871.81;;;25.13;100.00
3176;BME280;1599;51.564;6.990;2023-09-18T12:26:02;99873.63;;;24.93;100.00
3176;BME280;1599;51.564;6.990;2023-09-18T12:28:29;99880.34;;;25.16;100.00
3176;BME280;1599;51.564;6.990;2023-09-18T12:30:56;99887.88;;;25.12;100.00
3176;BME280;1599;51.564;6.990;2023-09-18T12:33:23;99872.53;;;25.10;100.00
3176;BME280;1599;51.564;6.990;2023-09-18T12:35:50;99879.00;;;24.98;100.00
3176;BME280;1599;51.564;6.990;2023-09-18T12:38:18;99889.53;;;25.01;100.00
3176;BME280;1599;51.564;6.990;2023-09-18T12:40:53;99893.34;;;24.69;100.00
3176;BME280;1599;51.564;6.990;2023-09-18T12:43:20;99888.22;;;24.71;100.00
3176;BME280;1599;51.564;6.990;2023-09-18T12:45:49;99883.19;;;24.65;100.00
3176;BME280;1599;51.564;6.990;2023-09-18T12:48:15;99882.59;;;24.59;100.00
3176;BME280;1599;51.564;6.990;2023-09-18T12:50:41;99882.38;;;24.52;100.00
3176;BME280;1599;51.564;6.990;2023-09-18T12:53:09;99882.16;;;24.57;100.00
3176;BME280;1599;51.564;6.990;2023-09-18T12:55:35;99871.78;;;24.33;100.00
3176;BME280;1599;51.564;6.990;2023-09-18T12:58:02;99864.75;;;24.39;100.00
3176;BME280;1599;51.564;6.990;2023-09-18T13:00:34;99868.84;;;24.42;100.00
3176;BME280;1599;51.564;6.990;2023-09-18T13:03:01;99859.97;;;24.40;100.00
3176;BME280;1599;51.564;6.990;2023-09-18T13:05:27;99867.88;;;24.50;100.00
3176;BME280;1599;51.564;6.990;2023-09-18T13:07:53;99864.13;;;24.46;100.00
3176;BME280;1599;51.564;6.990;2023-09-18T13:10:20;99856.41;;;24.43;100.00
3176;BME280;1599;51.564;6.990;2023-09-18T13:12:51;99856.31;;;24.39;100.00
3176;BME280;1599;51.564;6.990;2023-09-18T13:15:30;99856.41;;;24.43;100.00
3176;BME280;1599;51.564;6.990;2023-09-18T13:17:58;99853.88;;;24.26;100.00
3176;BME280;1599;51.564;6.990;2023-09-18T13:20:27;99855.53;;;24.27;100.00
3176;BME280;1599;51.564;6.990;2023-09-18T13:22:59;99849.63;;;24.44;100.00
3176;BME280;1599;51.564;6.990;2023-09-18T13:25:37;99850.09;;;24.58;100.00
3176;BME280;1599;51.564;6.990;2023-09-18T13:28:06;99841.66;;;24.58;100.00